sensor_id;sensor_type;location;lat;lon;timestamp;temperature;humidity
10083;DHT22;5080;48.528;8.078;2023-12-20T00:01:59;8.00;99.90
10083;DHT22;5080;48.528;8.078;2023-12-20T00:04:28;8.00;99.90
10083;DHT22;5080;48.528;8.078;2023-12-20T00:06:54;8.00;99.90
10083;DHT22;5080;48.528;8.078;2023-12-20T00:09:21;7.90;99.90
10083;DHT22;5080;48.528;8.078;2023-12-20T00:11:48;7.90;99.90
10083;DHT22;5080;48.528;8.078;2023-12-20T00:14:16;7.90;99.90
10083;DHT22;5080;48.528;8.078;2023-12-20T00:16:42;7.90;99.90
10083;DHT22;5080;48.528;8.078;2023-12-20T00:19:09;7.90;99.90
10083;DHT22;5080;48.528;8.078;2023-12-20T00:21:36;8.00;99.90
10083;DHT22;5080;48.528;8.078;2023-12-20T00:24:03;8.00;99.90
10083;DHT22;5080;48.528;8.078;2023-12-20T00:26:30;8.00;99.90
10083;DHT22;5080;48.528;8.078;2023-12-20T00:28:57;8.00;99.90
10083;DHT22;5080;48.528;8.078;2023-12-20T00:31:25;8.00;99.90
10083;DHT22;5080;48.528;8.078;2023-12-20T00:33:51;7.90;99.90
10083;DHT22;5080;48.528;8.078;2023-12-20T00:36:18;7.80;99.90
10083;DHT22;5080;48.528;8.078;2023-12-20T00:38:45;7.80;99.90
10083;DHT22;5080;48.528;8.078;2023-12-20T00:41:12;7.90;99.90
10083;DHT22;5080;48.528;8.078;2023-12-20T00:43:38;7.90;99.90
10083;DHT22;5080;48.528;8.078;2023-12-20T00:46:05;7.80;99.90
10083;DHT22;5080;48.528;8.078;2023-12-20T00:48:33;7.80;99.90
10083;DHT22;5080;48.528;8.078;2023-12-20T00:51:00;7.80;99.90
10083;DHT22;5080;48.528;8.078;2023-12-20T00:53:26;7.80;99.90
10083;DHT22;5080;48.528;8.078;2023-12-20T00:55:53;7.70;99.90
10083;DHT22;5080;48.528;8.078;2023-12-20T00:58:20;7.80;99.90
10083;DHT22;5080;48.528;8.078;2023-12-20T01:00:47;7.80;99.90
10083;DHT22;5080;48.528;8.078;2023-12-20T01:03:13;7.80;99.90
10083;DHT22;5080;48.528;8.078;2023-12-20T01:05:42;7.80;99.90
10083;DHT22;5080;48.528;8.078;2023-12-20T01:08:08;7.90;99.90
10083;DHT22;5080;48.528;8.078;2023-12-20T01:10:35;8.00;99.90
10083;DHT22;5080;48.528;8.078;2023-12-20T01:13:02;8.00;99.90
10083;DHT22;5080;48.528;8.078;2023-12-20T01:15:29;8.10;99.90
10083;DHT22;5080;48.528;8.078;2023-12-20T01:17:56;8.10;99.90
10083;DHT22;5080;48.528;8.078;2023-12-20T01:20:24;8.10;99.90
10083;DHT22;5080;48.528;8.078;2023-12-20T01:22:52;8.20;99.90
10083;DHT22;5080;48.528;8.078;2023-12-20T01:25:19;8.10;99.90
10083;DHT22;5080;48.528;8.078;2023-12-20T01:27:46;8.00;99.90
10083;DHT22;5080;48.528;8.078;2023-12-20T01:30:14;8.10;99.90
10083;DHT22;5080;48.528;8.078;2023-12-20T01:32:41;8.00;99.90
10083;DHT22;5080;48.528;8.078;2023-12-20T01:35:08;7.90;99.90
10083;DHT22;5080;48.528;8.078;2023-12-20T01:37:34;7.90;99.90
10083;DHT22;5080;48.528;8.078;2023-12-20T01:40:03;7.90;99.90
10083;DHT22;5080;48.528;8.078;2023-12-20T01:42:30;7.90;99.90
10083;DHT22;5080;48.528;8.078;2023-12-20T01:44:57;7.90;99.90
10083;DHT22;5080;48.528;8.078;2023-12-20T01:47:23;7.80;99.90
10083;DHT22;5080;48.528;8.078;2023-12-20T01:49:52;7.70;99.90
10083;DHT22;5080;48.528;8.078;2023-12-20T01:52:19;7.80;99.90
10083;DHT22;5080;48.528;8.078;2023-12-20T01:54:47;7.80;99.90
10083;DHT22;5080;48.528;8.078;2023-12-20T01:57:16;7.80;99.90
10083;DHT22;5080;48.528;8.078;2023-12-20T01:59:44;7.80;99.90
10083;DHT22;5080;48.528;8.078;2023-12-20T02:02:12;7.90;99.90
10083;DHT22;5080;48.528;8.078;2023-12-20T02:04:38;7.90;99.90
10083;DHT22;5080;48.528;8.078;2023-12-20T02:07:06;7.90;99.90
10083;DHT22;5080;48.528;8.078;2023-12-20T02:09:33;7.90;99.90
10083;DHT22;5080;48.528;8.078;2023-12-20T02:12:00;7.90;99.90
10083;DHT22;5080;48.528;8.078;2023-12-20T02:14:28;7.90;99.90
10083;DHT22;5080;48.528;8.078;2023-12-20T02:16:55;7.90;99.90
10083;DHT22;5080;48.528;8.078;2023-12-20T02:19:21;7.90;99.90
10083;DHT22;5080;48.528;8.078;2023-12-20T02:21:50;7.90;99.90
10083;DHT22;5080;48.528;8.078;2023-12-20T02:24:16;7.90;99.90
10083;DHT22;5080;48.528;8.078;2023-12-20T02:26:44;7.90;99.90
10083;DHT22;5080;48.528;8.078;2023-12-20T02:29:10;8.00;99.90
10083;DHT22;5080;48.528;8.078;2023-12-20T02:31:36;8.00;99.90
10083;DHT22;5080;48.528;8.078;2023-12-20T02:34:03;8.00;99.90
10083;DHT22;5080;48.528;8.078;2023-12-20T02:36:30;8.00;99.90
10083;DHT22;5080;48.528;8.078;2023-12-20T02:38:58;8.00;99.90
10083;DHT22;5080;48.528;8.078;2023-12-20T02:41:25;8.00;99.90
10083;DHT22;5080;48.528;8.078;2023-12-20T02:43:52;8.00;99.90
10083;DHT22;5080;48.528;8.078;2023-12-20T02:46:18;8.00;99.90
10083;DHT22;5080;48.528;8.078;2023-12-20T02:48:45;8.00;99.90
10083;DHT22;5080;48.528;8.078;2023-12-20T02:51:12;8.00;99.90
10083;DHT22;5080;48.528;8.078;2023-12-20T02:53:39;8.00;99.90
10083;DHT22;5080;48.528;8.078;2023-12-20T02:56:07;8.00;99.90
10083;DHT22;5080;48.528;8.078;2023-12-20T02:58:34;8.00;99.90
10083;DHT22;5080;48.528;8.078;2023-12-20T03:01:00;8.10;99.90
10083;DHT22;5080;48.528;8.078;2023-12-20T03:03:27;8.00;99.90
10083;DHT22;5080;48.528;8.078;2023-12-20T03:05:54;8.10;99.90
10083;DHT22;5080;48.528;8.078;2023-12-20T03:08:20;8.00;99.90
10083;DHT22;5080;48.528;8.078;2023-12-20T03:10:47;8.00;99.90
10083;DHT22;5080;48.528;8.078;2023-12-20T03:13:15;8.10;99.90
10083;DHT22;5080;48.528;8.078;2023-12-20T03:15:42;8.10;99.90
10083;DHT22;5080;48.528;8.078;2023-12-20T03:18:09;8.00;99.90
10083;DHT22;5080;48.528;8.078;2023-12-20T03:20:35;8.00;99.90
10083;DHT22;5080;48.528;8.078;2023-12-20T03:23:02;8.10;99.90
10083;DHT22;5080;48.528;8.078;2023-12-20T03:25:29;8.10;99.90
10083;DHT22;5080;48.528;8.078;2023-12-20T03:27:56;8.10;99.90
10083;DHT22;5080;48.528;8.078;2023-12-20T03:30:24;8.10;99.90
10083;DHT22;5080;48.528;8.078;2023-12-20T03:33:06;8.10;99.90
10083;DHT22;5080;48.528;8.078;2023-12-20T03:35:33;8.10;99.90
10083;DHT22;5080;48.528;8.078;2023-12-20T03:38:00;8.10;99.90
10083;DHT22;5080;48.528;8.078;2023-12-20T03:40:27;8.10;99.90
10083;DHT22;5080;48.528;8.078;2023-12-20T03:42:53;8.10;99.90
10083;DHT22;5080;48.528;8.078;2023-12-20T03:45:20;8.10;99.90
10083;DHT22;5080;48.528;8.078;2023-12-20T03:47:48;8.00;99.90
10083;DHT22;5080;48.528;8.078;2023-12-20T03:50:15;8.10;99.90
10083;DHT22;5080;48.528;8.078;2023-12-20T03:52:42;8.10;99.90
10083;DHT22;5080;48.528;8.078;2023-12-20T03:55:08;8.10;99.90
10083;DHT22;5080;48.528;8.078;2023-12-20T03:57:35;8.10;99.90
10083;DHT22;5080;48.528;8.078;2023-12-20T04:00:02;8.10;99.90
10083;DHT22;5080;48.528;8.078;2023-12-20T04:02:31;8.10;99.90
10083;DHT22;5080;48.528;8.078;2023-12-20T04:04:59;8.10;99.90
10083;DHT22;5080;48.528;8.078;2023-12-20T04:07:25;8.20;99.90
10083;DHT22;5080;48.528;8.078;2023-12-20T04:09:52;8.20;99.90
10083;DHT22;5080;48.528;8.078;2023-12-20T04:12:19;8.20;99.90
10083;DHT22;5080;48.528;8.078;2023-12-20T04:14:45;8.20;99.90
10083;DHT22;5080;48.528;8.078;2023-12-20T04:17:12;8.20;99.90
10083;DHT22;5080;48.528;8.078;2023-12-20T04:19:41;8.20;99.90
10083;DHT22;5080;48.528;8.078;2023-12-20T04:22:09;8.10;99.90
10083;DHT22;5080;48.528;8.078;2023-12-20T04:24:36;8.10;99.90
10083;DHT22;5080;48.528;8.078;2023-12-20T04:27:03;8.10;99.90
10083;DHT22;5080;48.528;8.078;2023-12-20T04:29:30;8.10;99.90
10083;DHT22;5080;48.528;8.078;2023-12-20T04:31:56;8.10;99.90
10083;DHT22;5080;48.528;8.078;2023-12-20T04:34:23;8.00;99.90
10083;DHT22;5080;48.528;8.078;2023-12-20T04:36:50;8.10;99.90
10083;DHT22;5080;48.528;8.078;2023-12-20T04:39:18;8.10;99.90
10083;DHT22;5080;48.528;8.078;2023-12-20T04:41:45;8.10;99.90
10083;DHT22;5080;48.528;8.078;2023-12-20T04:44:13;8.10;99.90
10083;DHT22;5080;48.528;8.078;2023-12-20T04:46:40;8.10;99.90
10083;DHT22;5080;48.528;8.078;2023-12-20T04:49:06;8.20;99.90
10083;DHT22;5080;48.528;8.078;2023-12-20T04:51:33;8.20;99.90
10083;DHT22;5080;48.528;8.078;2023-12-20T04:54:00;8.10;99.90
10083;DHT22;5080;48.528;8.078;2023-12-20T04:56:28;8.10;99.90
10083;DHT22;5080;48.528;8.078;2023-12-20T04:58:55;8.10;99.90
10083;DHT22;5080;48.528;8.078;2023-12-20T05:01:21;8.10;99.90
10083;DHT22;5080;48.528;8.078;2023-12-20T05:03:48;8.10;99.90
10083;DHT22;5080;48.528;8.078;2023-12-20T05:06:15;8.10;99.90
10083;DHT22;5080;48.528;8.078;2023-12-20T05:08:42;8.10;99.90
10083;DHT22;5080;48.528;8.078;2023-12-20T05:11:08;8.10;99.90
10083;DHT22;5080;48.528;8.078;2023-12-20T05:13:36;8.10;99.90
10083;DHT22;5080;48.528;8.078;2023-12-20T05:16:04;8.10;99.90
10083;DHT22;5080;48.528;8.078;2023-12-20T05:18:30;8.00;99.90
10083;DHT22;5080;48.528;8.078;2023-12-20T05:20:57;8.10;99.90
10083;DHT22;5080;48.528;8.078;2023-12-20T05:23:24;8.10;99.90
10083;DHT22;5080;48.528;8.078;2023-12-20T05:25:51;8.10;99.90
10083;DHT22;5080;48.528;8.078;2023-12-20T05:28:18;8.20;99.90
10083;DHT22;5080;48.528;8.078;2023-12-20T05:30:46;8.20;99.90
10083;DHT22;5080;48.528;8.078;2023-12-20T05:33:12;8.20;99.90
10083;DHT22;5080;48.528;8.078;2023-12-20T05:35:39;8.20;99.90
10083;DHT22;5080;48.528;8.078;2023-12-20T05:38:06;8.30;99.90
10083;DHT22;5080;48.528;8.078;2023-12-20T05:40:32;8.30;99.90
10083;DHT22;5080;48.528;8.078;2023-12-20T05:42:59;8.30;99.90
10083;DHT22;5080;48.528;8.078;2023-12-20T05:45:26;8.40;99.90
10083;DHT22;5080;48.528;8.078;2023-12-20T05:47:54;8.40;99.90
10083;DHT22;5080;48.528;8.078;2023-12-20T05:50:21;8.40;99.90
10083;DHT22;5080;48.528;8.078;2023-12-20T05:52:47;8.40;99.90
10083;DHT22;5080;48.528;8.078;2023-12-20T05:55:14;8.40;99.90
10083;DHT22;5080;48.528;8.078;2023-12-20T05:57:41;8.40;99.90
10083;DHT22;5080;48.528;8.078;2023-12-20T06:00:09;8.40;99.90
10083;DHT22;5080;48.528;8.078;2023-12-20T06:02:36;8.30;99.90
10083;DHT22;5080;48.528;8.078;2023-12-20T06:05:06;8.30;99.90
10083;DHT22;5080;48.528;8.078;2023-12-20T06:07:33;8.20;99.90
10083;DHT22;5080;48.528;8.078;2023-12-20T06:10:00;8.20;99.90
10083;DHT22;5080;48.528;8.078;2023-12-20T06:12:26;8.20;99.90
10083;DHT22;5080;48.528;8.078;2023-12-20T06:14:54;8.10;99.90
10083;DHT22;5080;48.528;8.078;2023-12-20T06:17:21;8.10;99.90
10083;DHT22;5080;48.528;8.078;2023-12-20T06:19:47;8.10;99.90
10083;DHT22;5080;48.528;8.078;2023-12-20T06:22:16;8.00;99.90
10083;DHT22;5080;48.528;8.078;2023-12-20T06:24:42;8.00;99.90
10083;DHT22;5080;48.528;8.078;2023-12-20T06:27:09;8.00;99.90
10083;DHT22;5080;48.528;8.078;2023-12-20T06:29:36;8.00;99.90
10083;DHT22;5080;48.528;8.078;2023-12-20T06:32:03;8.00;99.90
10083;DHT22;5080;48.528;8.078;2023-12-20T06:34:30;8.00;99.90
10083;DHT22;5080;48.528;8.078;2023-12-20T06:36:56;8.00;99.90
10083;DHT22;5080;48.528;8.078;2023-12-20T06:39:25;8.10;99.90
10083;DHT22;5080;48.528;8.078;2023-12-20T06:41:51;8.00;99.90
10083;DHT22;5080;48.528;8.078;2023-12-20T06:44:18;8.00;99.90
10083;DHT22;5080;48.528;8.078;2023-12-20T06:46:45;8.00;99.90
10083;DHT22;5080;48.528;8.078;2023-12-20T06:49:11;8.00;99.90
10083;DHT22;5080;48.528;8.078;2023-12-20T06:51:38;8.00;99.90
10083;DHT22;5080;48.528;8.078;2023-12-20T06:54:05;8.00;99.90
10083;DHT22;5080;48.528;8.078;2023-12-20T06:56:33;8.00;99.90
10083;DHT22;5080;48.528;8.078;2023-12-20T06:59:00;8.00;99.90
10083;DHT22;5080;48.528;8.078;2023-12-20T07:01:27;7.90;99.90
10083;DHT22;5080;48.528;8.078;2023-12-20T07:03:54;8.00;99.90
10083;DHT22;5080;48.528;8.078;2023-12-20T07:06:20;8.10;99.90
10083;DHT22;5080;48.528;8.078;2023-12-20T07:08:47;8.10;99.90
10083;DHT22;5080;48.528;8.078;2023-12-20T07:11:14;8.10;99.90
10083;DHT22;5080;48.528;8.078;2023-12-20T07:13:42;8.10;99.90
10083;DHT22;5080;48.528;8.078;2023-12-20T07:16:08;8.10;99.90
10083;DHT22;5080;48.528;8.078;2023-12-20T07:18:35;8.00;99.90
10083;DHT22;5080;48.528;8.078;2023-12-20T07:21:02;8.00;99.90
10083;DHT22;5080;48.528;8.078;2023-12-20T07:23:29;7.80;99.90
10083;DHT22;5080;48.528;8.078;2023-12-20T07:25:56;7.80;99.90
10083;DHT22;5080;48.528;8.078;2023-12-20T07:28:23;7.80;99.90
10083;DHT22;5080;48.528;8.078;2023-12-20T07:30:51;7.70;99.90
10083;DHT22;5080;48.528;8.078;2023-12-20T07:33:18;7.70;99.90
10083;DHT22;5080;48.528;8.078;2023-12-20T07:35:45;7.70;99.90
10083;DHT22;5080;48.528;8.078;2023-12-20T07:38:11;7.70;99.90
10083;DHT22;5080;48.528;8.078;2023-12-20T07:40:38;7.70;99.90
10083;DHT22;5080;48.528;8.078;2023-12-20T07:43:05;7.70;99.90
10083;DHT22;5080;48.528;8.078;2023-12-20T07:45:32;7.70;99.90
10083;DHT22;5080;48.528;8.078;2023-12-20T07:48:00;7.70;99.90
10083;DHT22;5080;48.528;8.078;2023-12-20T07:50:27;7.70;99.90
10083;DHT22;5080;48.528;8.078;2023-12-20T07:52:53;7.80;99.90
10083;DHT22;5080;48.528;8.078;2023-12-20T07:55:20;7.80;99.90
10083;DHT22;5080;48.528;8.078;2023-12-20T07:57:48;7.70;99.90
10083;DHT22;5080;48.528;8.078;2023-12-20T08:00:15;7.70;99.90
10083;DHT22;5080;48.528;8.078;2023-12-20T08:02:42;7.60;99.90
10083;DHT22;5080;48.528;8.078;2023-12-20T08:05:10;7.60;99.90
10083;DHT22;5080;48.528;8.078;2023-12-20T08:07:37;7.50;99.90
10083;DHT22;5080;48.528;8.078;2023-12-20T08:10:05;7.50;99.90
10083;DHT22;5080;48.528;8.078;2023-12-20T08:12:32;7.50;99.90
10083;DHT22;5080;48.528;8.078;2023-12-20T08:14:59;7.50;99.90
10083;DHT22;5080;48.528;8.078;2023-12-20T08:17:25;7.50;99.90
10083;DHT22;5080;48.528;8.078;2023-12-20T08:19:52;7.40;99.90
10083;DHT22;5080;48.528;8.078;2023-12-20T08:22:20;7.40;99.90
10083;DHT22;5080;48.528;8.078;2023-12-20T08:24:47;7.40;99.90
10083;DHT22;5080;48.528;8.078;2023-12-20T08:27:13;7.50;99.90
10083;DHT22;5080;48.528;8.078;2023-12-20T08:29:40;7.40;99.90
10083;DHT22;5080;48.528;8.078;2023-12-20T08:32:07;7.50;99.90
10083;DHT22;5080;48.528;8.078;2023-12-20T08:34:34;7.50;99.90
10083;DHT22;5080;48.528;8.078;2023-12-20T08:37:00;7.50;99.90
10083;DHT22;5080;48.528;8.078;2023-12-20T08:39:28;7.50;99.90
10083;DHT22;5080;48.528;8.078;2023-12-20T08:41:56;7.50;99.90
10083;DHT22;5080;48.528;8.078;2023-12-20T08:44:22;7.50;99.90
10083;DHT22;5080;48.528;8.078;2023-12-20T08:46:49;7.50;99.90
10083;DHT22;5080;48.528;8.078;2023-12-20T08:49:16;7.50;99.90
10083;DHT22;5080;48.528;8.078;2023-12-20T08:51:43;7.50;99.90
10083;DHT22;5080;48.528;8.078;2023-12-20T08:54:09;7.50;99.90
10083;DHT22;5080;48.528;8.078;2023-12-20T08:56:39;7.40;99.90
10083;DHT22;5080;48.528;8.078;2023-12-20T08:59:06;7.30;99.90
10083;DHT22;5080;48.528;8.078;2023-12-20T09:01:33;7.20;99.90
10083;DHT22;5080;48.528;8.078;2023-12-20T09:03:59;7.20;99.90
10083;DHT22;5080;48.528;8.078;2023-12-20T09:06:26;7.20;99.90
10083;DHT22;5080;48.528;8.078;2023-12-20T09:08:53;7.30;99.90
10083;DHT22;5080;48.528;8.078;2023-12-20T09:11:20;7.20;99.90
10083;DHT22;5080;48.528;8.078;2023-12-20T09:13:48;7.20;99.90
10083;DHT22;5080;48.528;8.078;2023-12-20T09:16:14;7.20;99.90
10083;DHT22;5080;48.528;8.078;2023-12-20T09:18:41;7.20;99.90
10083;DHT22;5080;48.528;8.078;2023-12-20T09:21:08;7.30;99.90
10083;DHT22;5080;48.528;8.078;2023-12-20T09:23:35;7.30;99.90
10083;DHT22;5080;48.528;8.078;2023-12-20T09:26:02;7.50;99.90
10083;DHT22;5080;48.528;8.078;2023-12-20T09:28:29;7.70;99.90
10083;DHT22;5080;48.528;8.078;2023-12-20T09:30:59;8.00;99.90
10083;DHT22;5080;48.528;8.078;2023-12-20T09:33:26;8.20;99.90
10083;DHT22;5080;48.528;8.078;2023-12-20T09:35:52;8.30;99.90
10083;DHT22;5080;48.528;8.078;2023-12-20T09:38:19;8.50;99.90
10083;DHT22;5080;48.528;8.078;2023-12-20T09:40:46;8.70;99.90
10083;DHT22;5080;48.528;8.078;2023-12-20T09:43:15;8.80;99.90
10083;DHT22;5080;48.528;8.078;2023-12-20T09:45:42;9.00;99.90
10083;DHT22;5080;48.528;8.078;2023-12-20T09:48:13;9.00;99.90
10083;DHT22;5080;48.528;8.078;2023-12-20T09:50:41;9.10;99.90
10083;DHT22;5080;48.528;8.078;2023-12-20T09:53:10;9.00;99.90
10083;DHT22;5080;48.528;8.078;2023-12-20T09:55:39;8.80;99.90
10083;DHT22;5080;48.528;8.078;2023-12-20T09:58:07;8.70;99.90
10083;DHT22;5080;48.528;8.078;2023-12-20T10:00:34;8.60;99.90
10083;DHT22;5080;48.528;8.078;2023-12-20T10:03:01;8.50;99.90
10083;DHT22;5080;48.528;8.078;2023-12-20T10:05:30;8.50;99.90
10083;DHT22;5080;48.528;8.078;2023-12-20T10:07:58;8.40;99.90
10083;DHT22;5080;48.528;8.078;2023-12-20T10:10:25;8.50;99.90
10083;DHT22;5080;48.528;8.078;2023-12-20T10:13:02;8.60;99.90
10083;DHT22;5080;48.528;8.078;2023-12-20T10:15:29;8.60;99.90
10083;DHT22;5080;48.528;8.078;2023-12-20T10:17:56;8.60;99.90
10083;DHT22;5080;48.528;8.078;2023-12-20T10:20:23;8.80;99.90
10083;DHT22;5080;48.528;8.078;2023-12-20T10:22:51;9.00;99.90
10083;DHT22;5080;48.528;8.078;2023-12-20T10:25:19;9.10;99.90
10083;DHT22;5080;48.528;8.078;2023-12-20T10:27:46;9.30;99.90
10083;DHT22;5080;48.528;8.078;2023-12-20T10:30:13;9.40;99.90
10083;DHT22;5080;48.528;8.078;2023-12-20T10:32:40;9.30;99.90
10083;DHT22;5080;48.528;8.078;2023-12-20T10:35:08;9.20;99.90
10083;DHT22;5080;48.528;8.078;2023-12-20T10:37:35;9.00;99.90
10083;DHT22;5080;48.528;8.078;2023-12-20T10:40:05;8.90;99.90
10083;DHT22;5080;48.528;8.078;2023-12-20T10:42:32;8.90;99.90
10083;DHT22;5080;48.528;8.078;2023-12-20T10:45:01;8.80;99.90
10083;DHT22;5080;48.528;8.078;2023-12-20T10:47:29;8.80;99.90
10083;DHT22;5080;48.528;8.078;2023-12-20T10:49:57;8.80;99.90
10083;DHT22;5080;48.528;8.078;2023-12-20T10:52:27;8.70;99.90
10083;DHT22;5080;48.528;8.078;2023-12-20T10:54:54;8.70;99.90
10083;DHT22;5080;48.528;8.078;2023-12-20T10:57:22;8.70;99.90
10083;DHT22;5080;48.528;8.078;2023-12-20T10:59:51;8.60;99.90
10083;DHT22;5080;48.528;8.078;2023-12-20T11:02:21;8.70;99.90
10083;DHT22;5080;48.528;8.078;2023-12-20T11:04:53;8.80;99.90
10083;DHT22;5080;48.528;8.078;2023-12-20T11:07:25;8.60;99.90
10083;DHT22;5080;48.528;8.078;2023-12-20T11:09:59;8.60;99.90
10083;DHT22;5080;48.528;8.078;2023-12-20T11:12:35;8.60;99.90
10083;DHT22;5080;48.528;8.078;2023-12-20T11:15:04;8.60;99.90
10083;DHT22;5080;48.528;8.078;2023-12-20T11:17:32;8.60;99.90
10083;DHT22;5080;48.528;8.078;2023-12-20T11:20:07;8.60;99.90
10083;DHT22;5080;48.528;8.078;2023-12-20T11:22:36;8.60;99.90
10083;DHT22;5080;48.528;8.078;2023-12-20T11:25:06;8.60;99.90
10083;DHT22;5080;48.528;8.078;2023-12-20T11:27:35;8.60;99.90
10083;DHT22;5080;48.528;8.078;2023-12-20T11:30:03;8.60;99.90
10083;DHT22;5080;48.528;8.078;2023-12-20T11:32:34;8.70;99.90
10083;DHT22;5080;48.528;8.078;2023-12-20T11:35:17;8.80;99.90
10083;DHT22;5080;48.528;8.078;2023-12-20T11:37:45;8.80;99.90
10083;DHT22;5080;48.528;8.078;2023-12-20T11:40:14;8.80;99.90
10083;DHT22;5080;48.528;8.078;2023-12-20T11:42:44;8.80;99.90
10083;DHT22;5080;48.528;8.078;2023-12-20T11:45:13;8.80;99.90
10083;DHT22;5080;48.528;8.078;2023-12-20T11:47:41;8.80;99.90
10083;DHT22;5080;48.528;8.078;2023-12-20T11:50:08;8.80;99.90
10083;DHT22;5080;48.528;8.078;2023-12-20T11:52:35;8.80;99.90
10083;DHT22;5080;48.528;8.078;2023-12-20T11:55:02;8.80;99.90
10083;DHT22;5080;48.528;8.078;2023-12-20T11:57:30;8.80;99.90
10083;DHT22;5080;48.528;8.078;2023-12-20T11:59:58;8.80;99.90
10083;DHT22;5080;48.528;8.078;2023-12-20T12:02:25;8.80;99.90
10083;DHT22;5080;48.528;8.078;2023-12-20T12:04:52;8.80;99.90
10083;DHT22;5080;48.528;8.078;2023-12-20T12:07:19;8.80;99.90
10083;DHT22;5080;48.528;8.078;2023-12-20T12:09:45;8.80;99.90
10083;DHT22;5080;48.528;8.078;2023-12-20T12:12:13;8.80;99.90
10083;DHT22;5080;48.528;8.078;2023-12-20T12:14:40;8.80;99.90
10083;DHT22;5080;48.528;8.078;2023-12-20T12:17:11;8.90;99.90
10083;DHT22;5080;48.528;8.078;2023-12-20T12:19:38;8.80;99.90
10083;DHT22;5080;48.528;8.078;2023-12-20T12:22:05;8.80;99.90
10083;DHT22;5080;48.528;8.078;2023-12-20T12:24:34;8.70;99.90
10083;DHT22;5080;48.528;8.078;2023-12-20T12:27:00;8.80;99.90
10083;DHT22;5080;48.528;8.078;2023-12-20T12:29:27;8.80;99.90
10083;DHT22;5080;48.528;8.078;2023-12-20T12:31:54;8.80;99.90
10083;DHT22;5080;48.528;8.078;2023-12-20T12:34:23;8.80;99.90
10083;DHT22;5080;48.528;8.078;2023-12-20T12:36:49;8.80;99.90
10083;DHT22;5080;48.528;8.078;2023-12-20T12:39:17;8.80;99.90
10083;DHT22;5080;48.528;8.078;2023-12-20T12:41:44;8.80;99.90
10083;DHT22;5080;48.528;8.078;2023-12-20T12:44:11;8.80;99.90
10083;DHT22;5080;48.528;8.078;2023-12-20T12:46:38;8.90;99.90
10083;DHT22;5080;48.528;8.078;2023-12-20T12:49:05;8.90;99.90
10083;DHT22;5080;48.528;8.078;2023-12-20T12:51:33;8.90;99.90
10083;DHT22;5080;48.528;8.078;2023-12-20T12:53:59;8.90;99.90
10083;DHT22;5080;48.528;8.078;2023-12-20T12:56:26;9.00;99.90
10083;DHT22;5080;48.528;8.078;2023-12-20T12:58:53;9.00;99.90
10083;DHT22;5080;48.528;8.078;2023-12-20T13:01:20;9.00;99.90
10083;DHT22;5080;48.528;8.078;2023-12-20T13:03:47;9.00;99.90
10083;DHT22;5080;48.528;8.078;2023-12-20T13:06:14;8.90;99.90
10083;DHT22;5080;48.528;8.078;2023-12-20T13:08:42;8.90;99.90
10083;DHT22;5080;48.528;8.078;2023-12-20T13:11:09;8.90;99.90
10083;DHT22;5080;48.528;8.078;2023-12-20T13:13:36;9.00;99.90
10083;DHT22;5080;48.528;8.078;2023-12-20T13:16:04;8.90;99.90
10083;DHT22;5080;48.528;8.078;2023-12-20T13:18:31;8.80;99.90
10083;DHT22;5080;48.528;8.078;2023-12-20T13:20:57;8.80;99.90
10083;DHT22;5080;48.528;8.078;2023-12-20T13:23:24;8.80;99.90
10083;DHT22;5080;48.528;8.078;2023-12-20T13:25:52;8.70;99.90
10083;DHT22;5080;48.528;8.078;2023-12-20T13:28:19;8.70;99.90
10083;DHT22;5080;48.528;8.078;2023-12-20T13:30:46;8.70;99.90
10083;DHT22;5080;48.528;8.078;2023-12-20T13:33:12;8.70;99.90
10083;DHT22;5080;48.528;8.078;2023-12-20T13:35:39;8.70;99.90
10083;DHT22;5080;48.528;8.078;2023-12-20T13:38:06;8.60;99.90
10083;DHT22;5080;48.528;8.078;2023-12-20T13:40:33;8.60;99.90
10083;DHT22;5080;48.528;8.078;2023-12-20T13:43:01;8.60;99.90
10083;DHT22;5080;48.528;8.078;2023-12-20T13:45:30;8.60;99.90
10083;DHT22;5080;48.528;8.078;2023-12-20T13:47:57;8.60;99.90
10083;DHT22;5080;48.528;8.078;2023-12-20T13:50:24;8.60;99.90
10083;DHT22;5080;48.528;8.078;2023-12-20T13:52:51;8.50;99.90
10083;DHT22;5080;48.528;8.078;2023-12-20T13:55:18;8.50;99.90
10083;DHT22;5080;48.528;8.078;2023-12-20T13:57:47;8.50;99.90
10083;DHT22;5080;48.528;8.078;2023-12-20T14:00:16;8.50;99.90
10083;DHT22;5080;48.528;8.078;2023-12-20T14:02:43;8.50;99.90
10083;DHT22;5080;48.528;8.078;2023-12-20T14:05:11;8.50;99.90
10083;DHT22;5080;48.528;8.078;2023-12-20T14:07:39;8.50;99.90
10083;DHT22;5080;48.528;8.078;2023-12-20T14:10:07;8.50;99.90
10083;DHT22;5080;48.528;8.078;2023-12-20T14:12:35;8.50;99.90
10083;DHT22;5080;48.528;8.078;2023-12-20T14:15:04;8.50;99.90
10083;DHT22;5080;48.528;8.078;2023-12-20T14:17:36;8.40;99.90
10083;DHT22;5080;48.528;8.078;2023-12-20T14:20:03;8.40;99.90
10083;DHT22;5080;48.528;8.078;2023-12-20T14:22:30;8.40;99.90
10083;DHT22;5080;48.528;8.078;2023-12-20T14:24:57;8.40;99.90
10083;DHT22;5080;48.528;8.078;2023-12-20T14:27:24;8.30;99.90
10083;DHT22;5080;48.528;8.078;2023-12-20T14:29:53;8.30;99.90
10083;DHT22;5080;48.528;8.078;2023-12-20T14:32:20;8.40;99.90
10083;DHT22;5080;48.528;8.078;2023-12-20T14:34:48;8.30;99.90
10083;DHT22;5080;48.528;8.078;2023-12-20T14:37:14;8.40;99.90
10083;DHT22;5080;48.528;8.078;2023-12-20T14:39:42;8.50;99.90
10083;DHT22;5080;48.528;8.078;2023-12-20T14:42:09;8.50;99.90
10083;DHT22;5080;48.528;8.078;2023-12-20T14:44:39;8.40;99.90
10083;DHT22;5080;48.528;8.078;2023-12-20T14:47:06;8.50;99.90
10083;DHT22;5080;48.528;8.078;2023-12-20T14:49:33;8.50;99.90
10083;DHT22;5080;48.528;8.078;2023-12-20T14:52:01;8.40;99.90
10083;DHT22;5080;48.528;8.078;2023-12-20T14:54:28;8.30;99.90
10083;DHT22;5080;48.528;8.078;2023-12-20T14:56:54;8.30;99.90
10083;DHT22;5080;48.528;8.078;2023-12-20T14:59:21;8.20;99.90
10083;DHT22;5080;48.528;8.078;2023-12-20T15:01:48;8.20;99.90
10083;DHT22;5080;48.528;8.078;2023-12-20T15:04:15;8.10;99.90
10083;DHT22;5080;48.528;8.078;2023-12-20T15:06:41;8.10;99.90
10083;DHT22;5080;48.528;8.078;2023-12-20T15:09:11;8.10;99.90
10083;DHT22;5080;48.528;8.078;2023-12-20T15:11:38;8.10;99.90
10083;DHT22;5080;48.528;8.078;2023-12-20T15:14:05;8.10;99.90
10083;DHT22;5080;48.528;8.078;2023-12-20T15:16:32;8.10;99.90
10083;DHT22;5080;48.528;8.078;2023-12-20T15:18:59;8.10;99.90
10083;DHT22;5080;48.528;8.078;2023-12-20T15:21:26;8.10;99.90
10083;DHT22;5080;48.528;8.078;2023-12-20T15:23:57;8.00;99.90
10083;DHT22;5080;48.528;8.078;2023-12-20T15:26:32;8.00;99.90
10083;DHT22;5080;48.528;8.078;2023-12-20T15:28:59;8.00;99.90
10083;DHT22;5080;48.528;8.078;2023-12-20T15:31:26;7.90;99.90
10083;DHT22;5080;48.528;8.078;2023-12-20T15:33:53;7.90;99.90
10083;DHT22;5080;48.528;8.078;2023-12-20T15:36:20;7.80;99.90
10083;DHT22;5080;48.528;8.078;2023-12-20T15:38:45;7.80;99.90
10083;DHT22;5080;48.528;8.078;2023-12-20T15:41:17;7.80;99.90
10083;DHT22;5080;48.528;8.078;2023-12-20T15:43:45;7.80;99.90
10083;DHT22;5080;48.528;8.078;2023-12-20T15:46:13;7.80;99.90
10083;DHT22;5080;48.528;8.078;2023-12-20T15:48:40;7.80;99.90
10083;DHT22;5080;48.528;8.078;2023-12-20T15:51:07;7.90;99.90
10083;DHT22;5080;48.528;8.078;2023-12-20T15:53:34;7.90;99.90
10083;DHT22;5080;48.528;8.078;2023-12-20T15:56:02;7.90;99.90
10083;DHT22;5080;48.528;8.078;2023-12-20T15:58:29;7.90;99.90
10083;DHT22;5080;48.528;8.078;2023-12-20T16:00:58;7.90;99.90
10083;DHT22;5080;48.528;8.078;2023-12-20T16:03:25;8.00;99.90